Time;durP1;ratioP1;P1;durP2;ratioP2;P2;SDS_P1;SDS_P2;PMS_P1;PMS_P2;Temp;Humidity;BMP_temperature;BMP_pressure;BME280_temperature;BME280_humidity;BME280_pressure;Samples;Min_cycle;Max_cycle;Signal;HPM_P1;HPM_P2
2022/04/22 00:01:16;;;;;;;;;;;;;;;1.37;53.04;97421.25;6370662;28;19976;-65
2022/04/22 00:04:17;;;;;;;;;;;;;;;1.34;53.10;97421.31;6370769;28;19950;-65
2022/04/22 00:07:18;;;;;;;;;;;;;;;1.35;53.10;97423.84;6370717;28;19923;-64
2022/04/22 00:10:19;;;;;;;;;;;;;;;1.39;53.92;97416.91;6370041;28;19923;-63
2022/04/22 00:13:21;;;;;;;;;;;;;;;1.34;53.05;97416.97;6370851;28;19923;-64
2022/04/22 00:16:22;;;;;;;;;;;;;;;1.30;53.26;97422.22;6352406;28;19924;-66
2022/04/22 00:19:23;;;;;;;;;;;;;;;1.31;53.15;97414.44;6370645;28;19931;-64
2022/04/22 00:22:24;;;;;;;;;;;;;;;1.36;53.32;97414.38;6370749;28;19923;-64
2022/04/22 00:25:27;;;;;;;;;;;;;;;1.43;52.79;97428.06;6352220;28;19930;-64
2022/04/22 00:28:31;;;;;;;;;;;;;;;1.41;53.19;97416.84;6370541;28;19946;-64
2022/04/22 00:31:34;;;;;;;;;;;;;;;1.43;53.41;97415.09;6370917;28;20433;-64
2022/04/22 00:34:41;;;;;;;;;;;;;;;1.45;53.42;97413.31;6371176;28;20010;-64
2022/04/22 00:37:43;;;;;;;;;;;;;;;1.49;53.06;97409.78;6370245;28;19930;-64
2022/04/22 00:40:44;;;;;;;;;;;;;;;1.46;53.47;97417.63;6370339;28;20014;-64
2022/04/22 00:43:49;;;;;;;;;;;;;;;1.47;52.98;97417.59;6370230;28;19946;-64
2022/04/22 00:46:51;;;;;;;;;;;;;;;1.45;53.36;97410.72;6370029;28;20384;-64
2022/04/22 00:49:52;;;;;;;;;;;;;;;1.42;53.05;97409.06;6352449;28;20413;-64
2022/04/22 00:52:53;;;;;;;;;;;;;;;1.38;53.20;97417.75;6370264;28;19927;-64
2022/04/22 00:55:57;;;;;;;;;;;;;;;1.35;52.90;97410.88;6371057;28;19923;-64
2022/04/22 00:58:59;;;;;;;;;;;;;;;1.34;52.64;97411.78;6373967;27;20445;-65
2022/04/22 01:02:02;;;;;;;;;;;;;;;1.30;53.46;97412.75;6374541;27;19924;-64
2022/04/22 01:11:47;;;;;;;;;;;;;;;1.17;53.61;97426.81;6375486;27;19927;-64
2022/04/22 01:14:52;;;;;;;;;;;;;;;1.32;53.55;97429.09;6375456;27;19919;-64
2022/04/22 01:17:53;;;;;;;;;;;;;;;1.20;54.25;97424.16;6374512;27;19931;-65
2022/04/22 01:20:59;;;;;;;;;;;;;;;1.09;53.42;97421.75;6374291;27;20348;-64
2022/04/22 01:24:03;;;;;;;;;;;;;;;1.12;53.93;97426.03;6375249;27;19991;-64
2022/04/22 01:27:05;;;;;;;;;;;;;;;1.12;54.85;97426.88;6374298;27;20312;-65
2022/04/22 01:30:06;;;;;;;;;;;;;;;1.05;54.19;97424.47;6374266;27;19927;-64
2022/04/22 01:33:10;;;;;;;;;;;;;;;1.07;54.43;97427.84;6374021;27;19924;-64
2022/04/22 01:36:16;;;;;;;;;;;;;;;0.97;54.22;97422.00;6374803;27;19923;-64
2022/04/22 01:39:17;;;;;;;;;;;;;;;0.97;54.25;97429.78;6374026;27;19927;-64
2022/04/22 01:42:23;;;;;;;;;;;;;;;1.00;53.77;97426.28;6374639;27;19935;-64
2022/04/22 01:45:24;;;;;;;;;;;;;;;1.02;53.95;97432.25;6356355;27;20400;-64
2022/04/22 01:48:25;;;;;;;;;;;;;;;1.01;54.24;97427.97;6373747;27;20277;-64
2022/04/22 01:51:29;;;;;;;;;;;;;;;1.01;54.53;97435.75;6373770;27;19924;-64
2022/04/22 01:54:30;;;;;;;;;;;;;;;1.05;54.72;97440.00;6373346;27;19923;-64
2022/04/22 01:57:34;;;;;;;;;;;;;;;1.04;54.32;97433.09;6374153;27;19924;-64
2022/04/22 02:00:35;;;;;;;;;;;;;;;1.05;54.84;97440.00;6355955;27;19930;-65
2022/04/22 02:03:38;;;;;;;;;;;;;;;1.14;54.23;97438.97;6374081;27;19927;-65
2022/04/22 02:06:42;;;;;;;;;;;;;;;1.16;54.63;97432.00;6373029;27;19930;-64
2022/04/22 02:09:43;;;;;;;;;;;;;;;1.20;54.06;97439.72;6371919;27;19955;-64
2022/04/22 02:12:47;;;;;;;;;;;;;;;1.25;53.57;97435.31;6373088;27;19938;-64
2022/04/22 02:15:48;;;;;;;;;;;;;;;1.30;53.70;97441.25;6372848;27;19923;-64
2022/04/22 02:18:49;;;;;;;;;;;;;;;1.37;53.44;97435.94;6372985;27;19930;-64
2022/04/22 02:21:53;;;;;;;;;;;;;;;1.39;54.04;97444.53;6373362;27;20021;-65
2022/04/22 02:25:00;;;;;;;;;;;;;;;1.47;53.88;97442.66;6373567;27;19927;-65
2022/04/22 02:31:23;;;;;;;;;;;;;;;1.56;54.02;97438.16;6373201;27;20305;-64
2022/04/22 02:34:24;;;;;;;;;;;;;;;1.62;53.70;97450.16;6372571;27;19930;-65
2022/04/22 02:37:25;;;;;;;;;;;;;;;1.65;53.79;97431.91;6354113;27;19946;-64
2022/04/22 02:47:07;;;;;;;;;;;;;;;1.83;53.21;97446.25;6371752;27;19924;-65
2022/04/22 02:50:09;;;;;;;;;;;;;;;1.88;53.47;97443.56;6372046;27;19923;-64
2022/04/22 02:53:14;;;;;;;;;;;;;;;1.98;53.29;97451.13;6372566;27;20013;-64
2022/04/22 02:56:21;;;;;;;;;;;;;;;2.05;53.29;97451.84;6372606;27;20029;-63
2022/04/22 02:59:24;;;;;;;;;;;;;;;2.17;52.95;97445.50;6354521;27;19969;-64
2022/04/22 03:02:28;;;;;;;;;;;;;;;2.20;52.76;97446.28;6372129;27;19923;-63
2022/04/22 03:05:34;;;;;;;;;;;;;;;2.36;52.67;97453.75;6372224;27;20346;-65
2022/04/22 03:08:37;;;;;;;;;;;;;;;2.44;52.40;97447.50;6372135;27;20362;-65
2022/04/22 03:11:41;;;;;;;;;;;;;;;2.50;52.15;97443.91;6372232;27;20323;-65
2022/04/22 03:14:44;;;;;;;;;;;;;;;2.62;52.15;97442.75;6371349;27;19930;-64
2022/04/22 03:17:45;;;;;;;;;;;;;;;2.81;51.49;97445.75;6371028;27;19931;-65
2022/04/22 03:20:49;;;;;;;;;;;;;;;2.89;51.00;97446.44;6371896;27;19923;-65
2022/04/22 03:23:50;;;;;;;;;;;;;;;3.03;51.06;97452.13;6371249;27;20366;-64
2022/04/22 03:26:51;;;;;;;;;;;;;;;3.12;50.30;97451.03;6371466;27;20396;-65
2022/04/22 03:29:55;;;;;;;;;;;;;;;3.17;50.28;97450.91;6371809;27;20010;-64
2022/04/22 03:32:56;;;;;;;;;;;;;;;3.29;49.80;97450.59;6370919;27;19923;-66
2022/04/22 03:35:57;;;;;;;;;;;;;;;3.36;49.41;97447.75;6370675;27;19981;-64
2022/04/22 03:38:58;;;;;;;;;;;;;;;3.51;49.00;97462.13;6370661;27;20304;-64
2022/04/22 03:41:59;;;;;;;;;;;;;;;3.67;48.57;97459.09;6371601;27;19923;-64
2022/04/22 03:45:00;;;;;;;;;;;;;;;3.76;48.14;97454.47;6370523;27;20464;-65
2022/04/22 03:48:01;;;;;;;;;;;;;;;3.95;47.45;97452.19;6370280;27;19927;-64
2022/04/22 03:51:04;;;;;;;;;;;;;;;3.99;47.13;97459.03;6371650;27;20339;-63
2022/04/22 03:54:09;;;;;;;;;;;;;;;4.16;46.65;97460.25;6352539;27;20304;-65
2022/04/22 04:00:29;;;;;;;;;;;;;;;4.27;46.16;97455.59;6370529;28;19923;-64
2022/04/22 04:03:31;;;;;;;;;;;;;;;4.55;45.56;97457.34;6352907;28;20368;-65
2022/04/22 04:06:32;;;;;;;;;;;;;;;4.66;44.58;97445.66;6371186;28;20377;-64
2022/04/22 04:16:13;;;;;;;;;;;;;;;4.91;43.54;97440.50;6370993;28;20668;-68
2022/04/22 04:25:54;;;;;;;;;;;;;;;5.17;43.35;97430.94;6352643;28;19927;-68
2022/04/22 04:28:55;;;;;;;;;;;;;;;5.44;42.66;97425.69;6370522;28;20342;-68
2022/04/22 04:31:56;;;;;;;;;;;;;;;5.60;42.68;97425.09;6370484;27;20427;-68
2022/04/22 04:34:57;;;;;;;;;;;;;;;5.78;42.07;97428.78;6375074;27;19934;-68
2022/04/22 04:37:58;;;;;;;;;;;;;;;6.03;40.95;97422.69;6376120;27;19988;-68
2022/04/22 04:41:00;;;;;;;;;;;;;;;6.07;40.63;97419.03;6376103;27;20384;-68
2022/04/22 04:44:01;;;;;;;;;;;;;;;5.88;41.02;97426.66;6374856;27;20273;-69
2022/04/22 04:47:02;;;;;;;;;;;;;;;5.90;40.76;97429.25;6374950;27;19923;-68
2022/04/22 04:50:04;;;;;;;;;;;;;;;5.93;40.61;97431.72;6357855;27;19923;-68
2022/04/22 04:53:05;;;;;;;;;;;;;;;6.27;38.78;97442.63;6375155;27;19987;-68
2022/04/22 04:56:07;;;;;;;;;;;;;;;6.14;39.75;97436.16;6375109;27;20021;-69
2022/04/22 04:59:10;;;;;;;;;;;;;;;7.50;38.23;97432.38;6374830;27;19923;-65
2022/04/22 05:02:12;;;;;;;;;;;;;;;10.16;35.07;97433.41;6374636;27;19937;-65
2022/04/22 05:05:18;;;;;;;;;;;;;;;14.21;29.84;97434.66;6375427;27;20307;-64
2022/04/22 05:08:22;;;;;;;;;;;;;;;17.99;22.55;97442.44;6374212;27;19930;-65
2022/04/22 05:11:28;;;;;;;;;;;;;;;21.44;23.50;97446.03;6375311;27;19937;-64
2022/04/22 05:14:29;;;;;;;;;;;;;;;23.04;21.95;97451.91;6374046;27;20295;-64
2022/04/22 05:17:32;;;;;;;;;;;;;;;24.50;21.39;97452.06;6374397;27;19942;-65
2022/04/22 05:20:36;;;;;;;;;;;;;;;25.90;21.14;97452.13;6374645;27;19924;-64
2022/04/22 05:23:37;;;;;;;;;;;;;;;25.27;21.89;97440.63;6374099;27;19952;-66
2022/04/22 05:26:38;;;;;;;;;;;;;;;24.32;21.88;97432.63;6374129;27;19958;-64
2022/04/22 05:33:04;;;;;;;;;;;;;;;28.99;17.12;97434.22;6374138;27;20316;-65
2022/04/22 05:36:07;;;;;;;;;;;;;;;30.58;15.57;97440.88;6356957;27;19959;-64
2022/04/22 05:39:10;;;;;;;;;;;;;;;32.12;14.93;97445.31;6374013;27;19924;-64
2022/04/22 05:42:12;;;;;;;;;;;;;;;34.21;14.13;97433.28;6373658;27;19923;-65
2022/04/22 05:45:18;;;;;;;;;;;;;;;35.61;11.86;97439.53;6373998;27;19923;-64
2022/04/22 05:48:19;;;;;;;;;;;;;;;35.66;12.10;97436.91;6373828;27;19923;-65
2022/04/22 05:51:20;;;;;;;;;;;;;;;36.40;12.25;97424.97;6372995;27;19935;-65
2022/04/22 05:54:26;;;;;;;;;;;;;;;37.61;12.13;97429.56;6373924;27;20018;-65
2022/04/22 05:57:32;;;;;;;;;;;;;;;38.64;10.64;97436.72;6373980;27;19927;-65
2022/04/22 06:00:34;;;;;;;;;;;;;;;38.29;10.21;97431.81;6373293;27;19923;-65
2022/04/22 06:03:37;;;;;;;;;;;;;;;38.20;10.06;97431.47;6373851;27;20396;-66
2022/04/22 06:06:38;;;;;;;;;;;;;;;39.14;9.55;97427.09;6372669;27;19930;-65
2022/04/22 06:13:02;;;;;;;;;;;;;;;41.17;9.14;97437.59;6372897;27;20384;-65
2022/04/22 06:16:04;;;;;;;;;;;;;;;42.30;8.23;97427.44;6373211;27;19984;-65
2022/04/22 06:19:10;;;;;;;;;;;;;;;41.83;7.56;97433.59;6373723;27;19927;-65
2022/04/22 06:22:11;;;;;;;;;;;;;;;41.27;7.99;97423.72;6373076;27;19923;-64
2022/04/22 06:25:12;;;;;;;;;;;;;;;40.90;7.22;97413.91;6372475;27;20040;-65
2022/04/22 06:28:13;;;;;;;;;;;;;;;41.11;6.69;97416.59;6354750;27;20423;-66
2022/04/22 06:31:18;;;;;;;;;;;;;;;41.16;6.89;97419.34;6372391;27;19927;-65
2022/04/22 06:34:19;;;;;;;;;;;;;;;42.04;6.44;97414.94;6372364;27;19946;-65
2022/04/22 06:37:23;;;;;;;;;;;;;;;42.55;6.18;97417.22;6372953;27;19924;-65
2022/04/22 06:47:05;;;;;;;;;;;;;;;43.19;5.97;97401.28;6372409;27;20056;-65
2022/04/22 06:50:06;;;;;;;;;;;;;;;44.23;5.46;97402.22;6353910;27;19933;-65
2022/04/22 06:53:07;;;;;;;;;;;;;;;44.25;4.43;97386.91;6371826;27;19938;-64
2022/04/22 06:56:13;;;;;;;;;;;;;;;43.96;4.32;97395.44;6353410;27;19923;-65
2022/04/22 06:59:19;;;;;;;;;;;;;;;42.59;5.14;97385.94;6372320;27;20010;-64
2022/04/22 07:02:20;;;;;;;;;;;;;;;42.82;5.00;97384.28;6371874;27;19923;-65
2022/04/22 07:05:22;;;;;;;;;;;;;;;43.39;5.04;97380.78;6371755;27;19931;-65
2022/04/22 07:08:24;;;;;;;;;;;;;;;43.49;4.81;97359.31;6353172;27;19930;-65
2022/04/22 07:11:28;;;;;;;;;;;;;;;43.74;4.93;97359.19;6372119;27;20456;-65
2022/04/22 07:14:31;;;;;;;;;;;;;;;44.27;3.82;97362.44;6371535;27;20018;-64
2022/04/22 07:17:36;;;;;;;;;;;;;;;43.68;4.54;97353.78;6372234;27;19963;-65
2022/04/22 07:20:40;;;;;;;;;;;;;;;44.57;4.26;97355.50;6372199;27;20006;-65
2022/04/22 07:23:45;;;;;;;;;;;;;;;45.65;2.89;97344.84;6372135;27;19931;-65
2022/04/22 07:26:49;;;;;;;;;;;;;;;46.78;4.20;97349.09;6371087;27;19923;-65
2022/04/22 07:29:50;;;;;;;;;;;;;;;47.04;3.85;97340.00;6371009;27;19923;-64
2022/04/22 07:32:51;;;;;;;;;;;;;;;46.93;2.47;97327.50;6370949;27;20317;-64
2022/04/22 07:35:55;;;;;;;;;;;;;;;46.60;3.15;97330.69;6371809;27;19957;-64
2022/04/22 07:38:58;;;;;;;;;;;;;;;46.37;2.86;97318.78;6370919;27;19923;-65
2022/04/22 07:42:02;;;;;;;;;;;;;;;45.27;3.47;97311.84;6353799;27;20524;-64
2022/04/22 07:48:26;;;;;;;;;;;;;;;43.35;4.07;97296.66;6371731;27;20019;-65
2022/04/22 07:51:30;;;;;;;;;;;;;;;43.76;3.71;97291.25;6370810;27;19923;-66
2022/04/22 07:54:31;;;;;;;;;;;;;;;43.48;3.56;97290.31;6370854;27;20428;-65
2022/04/22 07:57:34;;;;;;;;;;;;;;;43.47;3.21;97295.03;6370292;27;19929;-65
2022/04/22 08:00:36;;;;;;;;;;;;;;;44.17;3.68;97286.94;6370368;27;19924;-66
2022/04/22 08:03:40;;;;;;;;;;;;;;;43.99;3.39;97283.94;6371272;28;19924;-65
2022/04/22 08:06:43;;;;;;;;;;;;;;;43.50;3.07;97282.53;6372139;27;20319;-65
2022/04/22 08:09:47;;;;;;;;;;;;;;;44.71;3.77;97277.78;6358763;27;20400;-64
2022/04/22 08:12:48;;;;;;;;;;;;;;;46.14;2.49;97279.06;6375437;27;19931;-66
2022/04/22 08:15:53;;;;;;;;;;;;;;;46.60;1.94;97272.22;6375878;27;20931;-67
2022/04/22 08:18:54;;;;;;;;;;;;;;;45.34;2.75;97278.88;6357446;27;20435;-65
2022/04/22 08:21:55;;;;;;;;;;;;;;;41.72;3.58;97267.06;6375663;27;19955;-65
2022/04/22 08:24:56;;;;;;;;;;;;;;;39.35;3.78;97254.59;6375252;27;19923;-65
2022/04/22 08:27:58;;;;;;;;;;;;;;;36.99;5.23;97246.97;6375581;27;19923;-65
2022/04/22 08:30:59;;;;;;;;;;;;;;;36.41;5.59;97234.81;6375981;27;20020;-64
2022/04/22 08:34:03;;;;;;;;;;;;;;;38.83;4.89;97231.63;6376030;27;19923;-65
2022/04/22 08:37:06;;;;;;;;;;;;;;;41.29;4.02;97244.78;6374975;27;19993;-65
2022/04/22 08:40:07;;;;;;;;;;;;;;;41.64;3.58;97243.66;6374822;27;19923;-65
2022/04/22 08:43:12;;;;;;;;;;;;;;;39.89;4.22;97231.94;6356960;27;19968;-64
2022/04/22 08:53:06;;;;;;;;;;;;;;;38.13;4.62;97222.03;6375388;27;20463;-64
2022/04/22 08:56:11;;;;;;;;;;;;;;;37.47;5.52;97220.50;6374660;27;19927;-65
2022/04/22 08:59:12;;;;;;;;;;;;;;;38.41;4.44;97215.28;6374734;27;19931;-65
2022/04/22 09:02:17;;;;;;;;;;;;;;;37.15;4.75;97220.53;6374234;27;19923;-65
2022/04/22 09:05:19;;;;;;;;;;;;;;;36.06;5.29;97205.06;6374727;27;20315;-64
2022/04/22 09:08:20;;;;;;;;;;;;;;;35.45;5.64;97205.00;6374858;27;19923;-64
2022/04/22 09:11:24;;;;;;;;;;;;;;;36.40;5.78;97212.03;6375173;27;19923;-65
2022/04/22 09:14:25;;;;;;;;;;;;;;;37.81;4.92;97209.22;6374696;27;19923;-65
2022/04/22 09:17:29;;;;;;;;;;;;;;;38.78;4.53;97195.84;6374974;27;19923;-65
2022/04/22 09:20:32;;;;;;;;;;;;;;;39.69;4.58;97205.25;6355833;27;20087;-65
2022/04/22 09:23:36;;;;;;;;;;;;;;;40.29;4.33;97197.09;6356442;27;20367;-65
2022/04/22 09:26:37;;;;;;;;;;;;;;;40.47;4.28;97203.88;6373835;27;19930;-65
2022/04/22 09:29:54;;;;;;;;;;;;;;;39.76;4.58;97198.66;6355729;27;19973;-65
2022/04/22 09:32:55;;;;;;;;;;;;;;;38.12;4.68;97198.41;6374819;27;20378;-65
2022/04/22 09:42:52;;;;;;;;;;;;;;;36.04;5.78;97185.28;6374520;27;20022;-65
2022/04/22 09:45:55;;;;;;;;;;;;;;;36.22;6.01;97181.44;6373291;27;19927;-65
2022/04/22 09:48:58;;;;;;;;;;;;;;;36.32;5.62;97176.06;6373827;27;19923;-66
2022/04/22 09:52:08;;;;;;;;;;;;;;;35.13;6.02;97172.75;6373750;27;19938;-65
2022/04/22 09:55:16;;;;;;;;;;;;;;;34.15;6.56;97152.94;6374151;27;19923;-65
2022/04/22 09:58:21;;;;;;;;;;;;;;;34.84;6.24;97159.13;6372873;27;20349;-65
2022/04/22 10:01:23;;;;;;;;;;;;;;;35.36;6.03;97168.16;6373040;27;19923;-65
2022/04/22 10:04:24;;;;;;;;;;;;;;;34.68;6.39;97151.78;6372713;27;19923;-65
2022/04/22 10:07:32;;;;;;;;;;;;;;;34.50;6.59;97149.22;6355434;27;19971;-65
2022/04/22 10:10:38;;;;;;;;;;;;;;;34.76;6.31;97164.19;6372832;27;19923;-65
2022/04/22 10:13:46;;;;;;;;;;;;;;;34.08;6.80;97139.41;6373085;27;19923;-65
2022/04/22 10:16:48;;;;;;;;;;;;;;;33.91;6.87;97147.50;6373072;27;19923;-64
2022/04/22 10:19:53;;;;;;;;;;;;;;;34.78;6.50;97141.00;6372583;27;19930;-65
2022/04/22 10:22:54;;;;;;;;;;;;;;;33.70;7.15;97129.06;6372589;27;19946;-65
2022/04/22 10:25:59;;;;;;;;;;;;;;;32.81;7.53;97130.00;6372565;27;20309;-64
2022/04/22 10:29:03;;;;;;;;;;;;;;;32.88;7.38;97124.44;6372115;27;19923;-65
2022/04/22 10:32:05;;;;;;;;;;;;;;;32.91;7.36;97121.22;6371781;27;19928;-65
2022/04/22 10:35:07;;;;;;;;;;;;;;;32.55;7.26;97125.78;6373270;27;19992;-64
2022/04/22 10:38:30;;;;;;;;;;;;;;;31.66;7.75;97116.50;6373236;27;19939;-64
2022/04/22 10:41:35;;;;;;;;;;;;;;;30.39;8.61;97098.59;6353691;27;19927;-65
2022/04/22 10:48:17;;;;;;;;;;;;;;;30.72;8.64;97102.13;6372697;27;19924;-65
2022/04/22 10:51:18;;;;;;;;;;;;;;;31.11;7.99;97098.22;6372196;27;19924;-65
2022/04/22 10:54:20;;;;;;;;;;;;;;;31.13;8.15;97087.97;6371907;27;19981;-64
2022/04/22 10:57:24;;;;;;;;;;;;;;;31.30;8.09;97088.22;6372542;27;19923;-65
2022/04/22 11:00:28;;;;;;;;;;;;;;;31.15;8.21;97079.59;6371686;27;19923;-65
2022/04/22 11:03:34;;;;;;;;;;;;;;;29.82;9.07;97075.97;6371561;27;19923;-66
2022/04/22 11:06:40;;;;;;;;;;;;;;;29.23;9.38;97077.00;6372418;27;20017;-65
2022/04/22 11:09:43;;;;;;;;;;;;;;;29.66;9.03;97081.88;6371565;27;19923;-65
2022/04/22 11:12:55;;;;;;;;;;;;;;;29.27;9.46;97070.09;6371810;27;19923;-65
2022/04/22 11:16:04;;;;;;;;;;;;;;;28.96;9.61;97066.22;6372254;27;19966;-65
2022/04/22 11:19:18;;;;;;;;;;;;;;;28.71;9.80;97057.09;6371422;27;19924;-65
2022/04/22 11:22:38;;;;;;;;;;;;;;;28.58;10.06;97047.91;6371419;27;19934;-66
2022/04/22 11:25:41;;;;;;;;;;;;;;;28.89;9.82;97049.13;6371101;27;19988;-65
2022/04/22 11:28:47;;;;;;;;;;;;;;;28.40;10.14;97039.56;6371486;27;19963;-66
2022/04/22 11:32:11;;;;;;;;;;;;;;;28.71;10.08;97040.84;6370871;27;19929;-64
2022/04/22 11:35:21;;;;;;;;;;;;;;;29.37;9.67;97043.41;6360252;27;19923;-65
2022/04/22 11:38:23;;;;;;;;;;;;;;;29.03;9.94;97029.13;6370447;27;19928;-65
2022/04/22 11:41:24;;;;;;;;;;;;;;;28.54;10.18;97035.84;6370552;27;19930;-65
2022/04/22 11:44:28;;;;;;;;;;;;;;;28.21;10.39;97035.81;6371509;27;19924;-65
2022/04/22 11:47:32;;;;;;;;;;;;;;;27.63;10.96;97028.19;6371292;27;19923;-65
2022/04/22 11:50:41;;;;;;;;;;;;;;;26.82;11.06;97031.53;6371410;27;19924;-66
2022/04/22 11:53:49;;;;;;;;;;;;;;;26.05;11.74;97023.44;6370316;27;19946;-66
2022/04/22 11:56:53;;;;;;;;;;;;;;;25.82;11.70;97013.66;6370595;27;19923;-65
2022/04/22 12:06:37;;;;;;;;;;;;;;;25.28;12.39;96997.94;6352495;28;20289;-64
2022/04/22 12:09:38;;;;;;;;;;;;;;;24.69;12.84;96996.09;6371143;28;19923;-65
2022/04/22 12:12:52;;;;;;;;;;;;;;;24.04;13.27;96992.16;6370876;28;19930;-65
2022/04/22 12:15:54;;;;;;;;;;;;;;;23.90;13.46;96992.94;6371120;28;19929;-65
2022/04/22 12:19:00;;;;;;;;;;;;;;;23.78;13.54;96997.91;6370855;28;20308;-67
2022/04/22 12:22:01;;;;;;;;;;;;;;;23.45;13.75;96997.25;6369901;28;19930;-66
2022/04/22 12:25:08;;;;;;;;;;;;;;;23.08;14.09;96996.13;6370946;28;19928;-66
2022/04/22 12:28:16;;;;;;;;;;;;;;;22.75;14.33;96980.09;6371094;28;19976;-65
2022/04/22 12:31:23;;;;;;;;;;;;;;;22.64;14.34;96980.47;6370636;28;19931;-66
2022/04/22 12:34:31;;;;;;;;;;;;;;;22.71;14.24;96978.78;6352961;28;19930;-65
2022/04/22 12:37:35;;;;;;;;;;;;;;;22.64;14.49;96977.78;6371109;28;19927;-65
2022/04/22 12:40:48;;;;;;;;;;;;;;;22.75;14.53;96982.78;6369932;28;19923;-66
2022/04/22 12:43:53;;;;;;;;;;;;;;;22.58;14.33;96983.84;6370748;28;19923;-65
2022/04/22 12:53:46;;;;;;;;;;;;;;;20.79;15.78;96963.94;6372383;27;19923;-66
2022/04/22 12:56:52;;;;;;;;;;;;;;;20.63;16.09;96965.53;6375519;27;19923;-66
2022/04/22 12:59:55;;;;;;;;;;;;;;;20.75;16.09;96959.91;6375564;27;19923;-66
2022/04/22 13:03:01;;;;;;;;;;;;;;;20.21;16.13;96959.25;6375611;27;19927;-65
2022/04/22 13:06:04;;;;;;;;;;;;;;;19.66;17.19;96953.22;6375072;27;19991;-66
2022/04/22 13:09:09;;;;;;;;;;;;;;;19.21;17.47;96951.41;6375018;27;19971;-65
2022/04/22 13:12:14;;;;;;;;;;;;;;;18.38;18.45;96948.78;6375089;27;20307;-66
2022/04/22 13:15:19;;;;;;;;;;;;;;;17.98;18.85;96950.88;6374949;27;20304;-65
2022/04/22 13:18:22;;;;;;;;;;;;;;;17.31;18.93;96960.56;6375131;27;19923;-66
2022/04/22 13:21:26;;;;;;;;;;;;;;;17.06;19.49;96952.13;6375032;27;19969;-66
2022/04/22 13:24:30;;;;;;;;;;;;;;;16.86;19.86;96953.91;6374731;27;19996;-64
2022/04/22 13:27:37;;;;;;;;;;;;;;;16.55;20.60;96940.63;6374720;27;19923;-63
2022/04/22 13:30:40;;;;;;;;;;;;;;;16.07;20.52;96951.91;6374680;27;20353;-64
2022/04/22 13:33:44;;;;;;;;;;;;;;;15.83;20.94;96951.34;6374468;27;19923;-65
2022/04/22 13:36:48;;;;;;;;;;;;;;;15.69;21.50;96950.69;6374388;27;19929;-66
2022/04/22 13:39:49;;;;;;;;;;;;;;;15.46;21.43;96951.75;6373708;27;19924;-65
2022/04/22 13:42:50;;;;;;;;;;;;;;;15.70;22.03;96949.72;6373411;27;20404;-65
2022/04/22 13:52:32;;;;;;;;;;;;;;;15.08;22.56;96941.66;6373282;27;19924;-65
2022/04/22 13:55:37;;;;;;;;;;;;;;;14.95;22.68;96942.69;6372877;27;19930;-65
2022/04/22 13:58:43;;;;;;;;;;;;;;;14.90;23.01;96944.84;6355257;27;19923;-66
2022/04/22 14:01:48;;;;;;;;;;;;;;;14.76;23.36;96938.00;6355824;27;19923;-66
2022/04/22 14:04:51;;;;;;;;;;;;;;;14.41;23.41;96934.66;6372645;27;19923;-65
2022/04/22 14:07:56;;;;;;;;;;;;;;;14.25;23.56;96941.19;6373525;27;19930;-65
2022/04/22 14:10:57;;;;;;;;;;;;;;;14.22;23.63;96937.94;6354977;27;19929;-65
2022/04/22 14:13:58;;;;;;;;;;;;;;;14.07;24.09;96935.53;6373002;27;19923;-66
2022/04/22 14:16:59;;;;;;;;;;;;;;;13.82;24.12;96930.44;6372326;27;19935;-65
2022/04/22 14:20:00;;;;;;;;;;;;;;;13.81;24.42;96926.94;6372771;27;19924;-65
2022/04/22 14:23:04;;;;;;;;;;;;;;;13.73;24.65;96926.72;6373179;27;19923;-66
2022/04/22 14:26:05;;;;;;;;;;;;;;;13.47;24.79;96920.75;6372850;27;20388;-66
2022/04/22 14:29:06;;;;;;;;;;;;;;;13.09;25.08;96926.25;6372964;27;20304;-65
2022/04/22 14:32:07;;;;;;;;;;;;;;;13.03;25.20;96927.53;6372565;27;20327;-66
2022/04/22 14:35:12;;;;;;;;;;;;;;;12.86;25.49;96926.13;6373299;27;20392;-65
2022/04/22 14:38:14;;;;;;;;;;;;;;;12.87;25.81;96932.25;6354849;27;19930;-65
2022/04/22 14:41:17;;;;;;;;;;;;;;;12.73;26.03;96930.63;6372364;27;19944;-65
2022/04/22 14:44:18;;;;;;;;;;;;;;;12.56;26.24;96924.75;6372381;27;19924;-65
2022/04/22 14:47:25;;;;;;;;;;;;;;;12.39;26.35;96921.66;6372975;27;20410;-66
2022/04/22 14:50:26;;;;;;;;;;;;;;;12.22;26.79;96920.22;6353840;27;19930;-65
2022/04/22 14:53:30;;;;;;;;;;;;;;;12.12;27.03;96925.28;6372696;27;19989;-65
2022/04/22 14:56:34;;;;;;;;;;;;;;;12.12;27.24;96923.50;6372551;27;19924;-66
2022/04/22 14:59:38;;;;;;;;;;;;;;;11.83;27.56;96924.63;6371494;27;19946;-65
2022/04/22 15:02:44;;;;;;;;;;;;;;;11.63;27.95;96924.25;6372238;27;19924;-65
2022/04/22 15:05:48;;;;;;;;;;;;;;;11.47;27.99;96928.84;6372326;27;19927;-64
2022/04/22 15:08:52;;;;;;;;;;;;;;;11.38;28.37;96924.19;6372283;27;19923;-65
2022/04/22 15:11:53;;;;;;;;;;;;;;;11.18;28.56;96925.50;6371783;27;19923;-65
2022/04/22 15:14:55;;;;;;;;;;;;;;;11.01;28.70;96926.63;6371125;27;19923;-65
2022/04/22 15:24:38;;;;;;;;;;;;;;;10.69;29.68;96934.84;6371464;27;19930;-66
2022/04/22 15:27:41;;;;;;;;;;;;;;;10.70;30.11;96936.53;6372219;27;19923;-67
2022/04/22 15:31:06;;;;;;;;;;;;;;;10.53;29.95;96936.75;6352933;27;20381;-65
2022/04/22 15:34:07;;;;;;;;;;;;;;;10.43;30.39;96946.19;6371305;27;19923;-65
2022/04/22 15:37:11;;;;;;;;;;;;;;;10.32;30.59;96942.44;6372188;27;19935;-65
2022/04/22 15:40:12;;;;;;;;;;;;;;;10.26;30.50;96941.94;6370410;27;19923;-65
2022/04/22 15:43:15;;;;;;;;;;;;;;;10.26;31.25;96944.59;6371669;27;19923;-66
2022/04/22 15:46:17;;;;;;;;;;;;;;;10.08;31.29;96947.41;6370408;27;19923;-64
2022/04/22 15:49:18;;;;;;;;;;;;;;;10.21;31.37;96947.50;6370853;27;19938;-66
2022/04/22 15:52:22;;;;;;;;;;;;;;;9.90;31.52;96938.84;6371552;27;19924;-65
2022/04/22 15:55:24;;;;;;;;;;;;;;;9.74;31.74;96943.38;6370543;27;20224;-65
2022/04/22 15:58:28;;;;;;;;;;;;;;;9.56;31.75;96950.56;6370982;27;19931;-67
2022/04/22 16:01:35;;;;;;;;;;;;;;;9.51;32.05;96947.38;6371003;27;19964;-66
2022/04/22 16:04:37;;;;;;;;;;;;;;;9.58;32.02;96953.09;6370571;27;19923;-65
2022/04/22 16:07:43;;;;;;;;;;;;;;;9.53;32.28;96956.00;6371121;28;20395;-64
2022/04/22 16:10:44;;;;;;;;;;;;;;;9.40;32.29;96949.81;6371088;28;19946;-65
2022/04/22 16:17:07;;;;;;;;;;;;;;;9.17;32.47;96948.50;6370684;28;19923;-64
2022/04/22 16:20:13;;;;;;;;;;;;;;;9.21;32.49;96950.03;6371052;28;20013;-65
2022/04/22 16:23:15;;;;;;;;;;;;;;;9.23;32.63;96940.28;6370228;28;20403;-65
2022/04/22 16:26:18;;;;;;;;;;;;;;;9.22;32.95;96951.69;6352145;28;19928;-66
2022/04/22 16:29:22;;;;;;;;;;;;;;;9.09;32.88;96956.00;6373930;27;20423;-65
2022/04/22 16:32:23;;;;;;;;;;;;;;;8.94;33.13;96953.28;6375235;27;19923;-65
2022/04/22 16:35:27;;;;;;;;;;;;;;;8.82;32.85;96948.75;6376400;27;20420;-65
2022/04/22 16:38:28;;;;;;;;;;;;;;;8.77;33.08;96945.53;6375215;27;19923;-65
2022/04/22 16:41:31;;;;;;;;;;;;;;;8.72;33.06;96948.44;6374888;27;20022;-65
2022/04/22 16:44:39;;;;;;;;;;;;;;;8.77;33.62;96941.16;6374970;27;19999;-65
2022/04/22 16:47:40;;;;;;;;;;;;;;;8.93;33.83;96941.09;6375324;27;19923;-66
2022/04/22 16:50:44;;;;;;;;;;;;;;;9.05;33.88;96941.34;6376026;27;19923;-66
2022/04/22 16:53:45;;;;;;;;;;;;;;;8.97;34.05;96942.63;6375503;27;19931;-65
2022/04/22 16:56:46;;;;;;;;;;;;;;;8.75;34.21;96942.16;6375139;27;19923;-64
2022/04/22 16:59:47;;;;;;;;;;;;;;;8.52;34.07;96936.44;6374683;27;19956;-65
2022/04/22 17:02:48;;;;;;;;;;;;;;;8.31;34.35;96938.41;6374521;27;19934;-65
2022/04/22 17:05:51;;;;;;;;;;;;;;;8.24;34.36;96941.47;6374055;27;19923;-66
2022/04/22 17:08:53;;;;;;;;;;;;;;;8.52;34.36;96943.44;6374788;27;19923;-65
2022/04/22 17:11:54;;;;;;;;;;;;;;;8.56;34.38;96946.75;6374404;27;19923;-64
2022/04/22 17:24:56;;;;;;;;;;;;;;;8.09;35.59;96950.97;6374464;27;19927;-65
2022/04/22 17:28:00;;;;;;;;;;;;;;;8.03;35.98;96949.53;6375194;27;20110;-66
2022/04/22 17:31:02;;;;;;;;;;;;;;;7.97;36.09;96952.50;6374280;27;19924;-66
2022/04/22 17:34:03;;;;;;;;;;;;;;;7.84;36.75;96948.81;6374116;27;19927;-65
2022/04/22 17:37:06;;;;;;;;;;;;;;;7.68;36.67;96947.94;6374064;27;19934;-65
2022/04/22 17:40:07;;;;;;;;;;;;;;;7.55;36.90;96956.41;6355865;27;19923;-65
2022/04/22 17:43:09;;;;;;;;;;;;;;;7.35;37.25;96951.38;6374022;27;20300;-64
2022/04/22 17:46:10;;;;;;;;;;;;;;;7.33;37.84;96947.97;6374137;27;19923;-65
2022/04/22 17:49:11;;;;;;;;;;;;;;;7.16;37.95;96948.81;6374090;27;19923;-65